2LL3 weather

Roy Burden Restricted Landing Area
Shirley, Illinois, United States

Public forecast

Using degrees Fahrenheit for public forecast. Weather courtesy of forecast.io.

METAR (pilot weather report)

Closest report is Central Illinois Regional Airport at Bloomington-Normal, 8.8 nm (16.3 km) NE. Retrieved 2019/06/20 11:56 UTC (28 minutes ago):

KBMI 201156Z 32014G21KT 10SM OVC005 14/14 A2969 RMK AO2 SLP049 60001 70066 T01440139 10156 20139 53027

TAF (pilot weather forecast)

Closest forecast is Central Illinois Regional Airport at Bloomington-Normal, 8.8 nm (16.3 km) NE. Retrieved 2019/06/20 12:42 UTC (0 seconds ago):

TAF KBMI 201139Z 2012/2112 33011KT P6SM BKN005 OVC008 FM201500 33010KT P6SM BKN010 FM201700 32010KT P6SM BKN030 FM201900 32010KT P6SM SCT030 BKN045 FM210100 VRB06KT P6SM SCT100